sensor_id;sensor_type;location;lat;lon;timestamp;P1;durP1;ratioP1;P2;durP2;ratioP2
13590;SDS011;6866;50.778;7.206;2023-07-22T00:00:28;12.70;;;7.00;;
13590;SDS011;6866;50.778;7.206;2023-07-22T00:02:54;12.48;;;7.65;;
13590;SDS011;6866;50.778;7.206;2023-07-22T00:05:20;11.35;;;6.50;;
13590;SDS011;6866;50.778;7.206;2023-07-22T00:07:48;12.23;;;6.95;;
13590;SDS011;6866;50.778;7.206;2023-07-22T00:10:15;11.70;;;6.60;;
13590;SDS011;6866;50.778;7.206;2023-07-22T00:12:41;15.93;;;7.00;;
13590;SDS011;6866;50.778;7.206;2023-07-22T00:15:06;11.80;;;6.82;;
13590;SDS011;6866;50.778;7.206;2023-07-22T00:17:33;11.52;;;6.63;;
13590;SDS011;6866;50.778;7.206;2023-07-22T00:19:58;14.90;;;7.03;;
13590;SDS011;6866;50.778;7.206;2023-07-22T00:22:25;13.43;;;7.53;;
13590;SDS011;6866;50.778;7.206;2023-07-22T00:24:51;11.38;;;6.85;;
13590;SDS011;6866;50.778;7.206;2023-07-22T00:27:17;13.52;;;6.55;;
13590;SDS011;6866;50.778;7.206;2023-07-22T00:29:43;12.07;;;6.40;;
13590;SDS011;6866;50.778;7.206;2023-07-22T00:32:08;10.10;;;6.88;;
13590;SDS011;6866;50.778;7.206;2023-07-22T00:34:34;19.70;;;7.22;;
13590;SDS011;6866;50.778;7.206;2023-07-22T00:37:01;11.40;;;6.88;;
13590;SDS011;6866;50.778;7.206;2023-07-22T00:39:27;12.40;;;6.72;;
13590;SDS011;6866;50.778;7.206;2023-07-22T00:41:53;12.82;;;7.15;;
13590;SDS011;6866;50.778;7.206;2023-07-22T00:44:18;13.45;;;6.90;;
13590;SDS011;6866;50.778;7.206;2023-07-22T00:46:44;9.95;;;6.75;;
13590;SDS011;6866;50.778;7.206;2023-07-22T00:49:09;11.75;;;6.97;;
13590;SDS011;6866;50.778;7.206;2023-07-22T00:51:37;10.93;;;6.20;;
13590;SDS011;6866;50.778;7.206;2023-07-22T00:54:03;11.30;;;6.78;;
13590;SDS011;6866;50.778;7.206;2023-07-22T00:56:30;12.60;;;7.40;;
13590;SDS011;6866;50.778;7.206;2023-07-22T00:58:58;14.32;;;8.10;;
13590;SDS011;6866;50.778;7.206;2023-07-22T01:03:59;11.98;;;6.82;;
13590;SDS011;6866;50.778;7.206;2023-07-22T01:06:26;11.98;;;7.10;;
13590;SDS011;6866;50.778;7.206;2023-07-22T01:08:54;15.52;;;6.95;;
13590;SDS011;6866;50.778;7.206;2023-07-22T01:11:19;15.80;;;7.85;;
13590;SDS011;6866;50.778;7.206;2023-07-22T01:13:45;13.35;;;6.93;;
13590;SDS011;6866;50.778;7.206;2023-07-22T01:16:10;12.75;;;7.70;;
13590;SDS011;6866;50.778;7.206;2023-07-22T01:18:36;12.90;;;7.10;;
13590;SDS011;6866;50.778;7.206;2023-07-22T01:21:03;12.85;;;6.97;;
13590;SDS011;6866;50.778;7.206;2023-07-22T01:23:31;12.75;;;7.82;;
13590;SDS011;6866;50.778;7.206;2023-07-22T01:25:56;12.13;;;7.10;;
13590;SDS011;6866;50.778;7.206;2023-07-22T01:28:23;13.30;;;7.40;;
13590;SDS011;6866;50.778;7.206;2023-07-22T01:30:48;11.55;;;7.13;;
13590;SDS011;6866;50.778;7.206;2023-07-22T01:33:14;15.68;;;7.50;;
13590;SDS011;6866;50.778;7.206;2023-07-22T01:35:40;15.70;;;7.18;;
13590;SDS011;6866;50.778;7.206;2023-07-22T01:38:06;11.93;;;7.13;;
13590;SDS011;6866;50.778;7.206;2023-07-22T01:40:33;11.43;;;7.35;;
13590;SDS011;6866;50.778;7.206;2023-07-22T01:42:58;14.15;;;7.78;;
13590;SDS011;6866;50.778;7.206;2023-07-22T01:45:24;13.95;;;7.57;;
13590;SDS011;6866;50.778;7.206;2023-07-22T01:47:50;14.35;;;7.72;;
13590;SDS011;6866;50.778;7.206;2023-07-22T01:50:16;11.25;;;7.40;;
13590;SDS011;6866;50.778;7.206;2023-07-22T01:52:43;15.70;;;7.40;;
13590;SDS011;6866;50.778;7.206;2023-07-22T01:55:09;15.35;;;7.50;;
13590;SDS011;6866;50.778;7.206;2023-07-22T01:57:35;12.93;;;7.18;;
13590;SDS011;6866;50.778;7.206;2023-07-22T02:00:01;17.80;;;7.40;;
13590;SDS011;6866;50.778;7.206;2023-07-22T02:02:30;11.70;;;6.90;;
13590;SDS011;6866;50.778;7.206;2023-07-22T02:04:55;15.02;;;7.43;;
13590;SDS011;6866;50.778;7.206;2023-07-22T02:07:21;14.02;;;7.38;;
13590;SDS011;6866;50.778;7.206;2023-07-22T02:09:46;13.70;;;7.20;;
13590;SDS011;6866;50.778;7.206;2023-07-22T02:12:12;13.88;;;7.32;;
13590;SDS011;6866;50.778;7.206;2023-07-22T02:14:37;12.23;;;7.70;;
13590;SDS011;6866;50.778;7.206;2023-07-22T02:17:03;16.10;;;7.85;;
13590;SDS011;6866;50.778;7.206;2023-07-22T02:19:29;12.82;;;7.50;;
13590;SDS011;6866;50.778;7.206;2023-07-22T02:21:54;14.88;;;7.55;;
13590;SDS011;6866;50.778;7.206;2023-07-22T02:24:20;16.70;;;7.70;;
13590;SDS011;6866;50.778;7.206;2023-07-22T02:26:46;13.57;;;7.30;;
13590;SDS011;6866;50.778;7.206;2023-07-22T02:29:11;11.93;;;7.03;;
13590;SDS011;6866;50.778;7.206;2023-07-22T02:31:37;13.25;;;7.80;;
13590;SDS011;6866;50.778;7.206;2023-07-22T02:34:03;12.15;;;7.20;;
13590;SDS011;6866;50.778;7.206;2023-07-22T02:36:28;12.05;;;7.78;;
13590;SDS011;6866;50.778;7.206;2023-07-22T02:38:54;14.80;;;7.90;;
13590;SDS011;6866;50.778;7.206;2023-07-22T02:41:19;12.75;;;7.63;;
13590;SDS011;6866;50.778;7.206;2023-07-22T02:43:46;15.00;;;7.72;;
13590;SDS011;6866;50.778;7.206;2023-07-22T02:46:12;16.58;;;7.38;;
13590;SDS011;6866;50.778;7.206;2023-07-22T02:48:37;14.73;;;7.45;;
13590;SDS011;6866;50.778;7.206;2023-07-22T02:53:31;13.02;;;8.10;;
13590;SDS011;6866;50.778;7.206;2023-07-22T02:56:01;12.73;;;7.95;;
13590;SDS011;6866;50.778;7.206;2023-07-22T02:58:27;12.40;;;7.07;;
13590;SDS011;6866;50.778;7.206;2023-07-22T03:00:52;13.77;;;7.72;;
13590;SDS011;6866;50.778;7.206;2023-07-22T03:03:18;11.80;;;7.35;;
13590;SDS011;6866;50.778;7.206;2023-07-22T03:05:44;12.68;;;7.63;;
13590;SDS011;6866;50.778;7.206;2023-07-22T03:08:09;14.32;;;7.85;;
13590;SDS011;6866;50.778;7.206;2023-07-22T03:10:35;12.38;;;7.22;;
13590;SDS011;6866;50.778;7.206;2023-07-22T03:13:01;19.73;;;7.93;;
13590;SDS011;6866;50.778;7.206;2023-07-22T03:15:28;12.18;;;8.43;;
13590;SDS011;6866;50.778;7.206;2023-07-22T03:17:54;13.15;;;7.68;;
13590;SDS011;6866;50.778;7.206;2023-07-22T03:20:20;13.75;;;7.75;;
13590;SDS011;6866;50.778;7.206;2023-07-22T03:22:47;11.05;;;7.15;;
13590;SDS011;6866;50.778;7.206;2023-07-22T03:25:14;12.88;;;7.32;;
13590;SDS011;6866;50.778;7.206;2023-07-22T03:27:42;12.82;;;7.65;;
13590;SDS011;6866;50.778;7.206;2023-07-22T03:30:08;15.95;;;7.57;;
13590;SDS011;6866;50.778;7.206;2023-07-22T03:32:36;13.27;;;7.15;;
13590;SDS011;6866;50.778;7.206;2023-07-22T03:35:01;13.43;;;7.63;;
13590;SDS011;6866;50.778;7.206;2023-07-22T03:37:28;12.98;;;7.22;;
13590;SDS011;6866;50.778;7.206;2023-07-22T03:39:54;12.02;;;6.95;;
13590;SDS011;6866;50.778;7.206;2023-07-22T03:42:19;11.88;;;7.10;;
13590;SDS011;6866;50.778;7.206;2023-07-22T03:44:45;12.38;;;7.68;;
13590;SDS011;6866;50.778;7.206;2023-07-22T03:47:11;11.43;;;7.32;;
13590;SDS011;6866;50.778;7.206;2023-07-22T03:49:36;9.80;;;6.90;;
13590;SDS011;6866;50.778;7.206;2023-07-22T03:52:02;12.80;;;6.90;;
13590;SDS011;6866;50.778;7.206;2023-07-22T03:54:27;12.45;;;7.20;;
13590;SDS011;6866;50.778;7.206;2023-07-22T03:56:53;12.95;;;7.63;;
13590;SDS011;6866;50.778;7.206;2023-07-22T03:59:18;10.90;;;6.72;;
13590;SDS011;6866;50.778;7.206;2023-07-22T04:01:44;14.25;;;6.75;;
13590;SDS011;6866;50.778;7.206;2023-07-22T04:04:11;12.05;;;6.90;;
13590;SDS011;6866;50.778;7.206;2023-07-22T04:06:36;12.88;;;7.07;;
13590;SDS011;6866;50.778;7.206;2023-07-22T04:09:02;11.95;;;6.88;;
13590;SDS011;6866;50.778;7.206;2023-07-22T04:11:27;12.32;;;6.38;;
13590;SDS011;6866;50.778;7.206;2023-07-22T04:13:53;13.27;;;7.05;;
13590;SDS011;6866;50.778;7.206;2023-07-22T04:16:18;15.20;;;7.20;;
13590;SDS011;6866;50.778;7.206;2023-07-22T04:18:44;14.30;;;6.97;;
13590;SDS011;6866;50.778;7.206;2023-07-22T04:21:09;14.63;;;7.20;;
13590;SDS011;6866;50.778;7.206;2023-07-22T04:23:35;13.25;;;6.88;;
13590;SDS011;6866;50.778;7.206;2023-07-22T04:26:02;13.10;;;6.72;;
13590;SDS011;6866;50.778;7.206;2023-07-22T04:28:32;10.25;;;6.88;;
13590;SDS011;6866;50.778;7.206;2023-07-22T04:30:58;14.55;;;6.95;;
13590;SDS011;6866;50.778;7.206;2023-07-22T04:33:25;11.27;;;6.60;;
13590;SDS011;6866;50.778;7.206;2023-07-22T04:35:53;11.20;;;6.45;;
13590;SDS011;6866;50.778;7.206;2023-07-22T04:38:20;13.57;;;6.30;;
13590;SDS011;6866;50.778;7.206;2023-07-22T04:40:46;9.85;;;6.47;;
13590;SDS011;6866;50.778;7.206;2023-07-22T04:43:11;11.43;;;6.68;;
13590;SDS011;6866;50.778;7.206;2023-07-22T04:45:37;9.20;;;6.72;;
13590;SDS011;6866;50.778;7.206;2023-07-22T04:48:05;8.60;;;6.47;;
13590;SDS011;6866;50.778;7.206;2023-07-22T04:50:31;9.85;;;6.38;;
13590;SDS011;6866;50.778;7.206;2023-07-22T04:52:56;11.25;;;6.38;;
13590;SDS011;6866;50.778;7.206;2023-07-22T04:55:22;8.70;;;6.28;;
13590;SDS011;6866;50.778;7.206;2023-07-22T04:57:47;10.48;;;6.10;;
13590;SDS011;6866;50.778;7.206;2023-07-22T05:00:13;9.65;;;5.68;;
13590;SDS011;6866;50.778;7.206;2023-07-22T05:02:41;9.23;;;5.90;;
13590;SDS011;6866;50.778;7.206;2023-07-22T05:05:10;12.80;;;5.90;;
13590;SDS011;6866;50.778;7.206;2023-07-22T05:07:36;10.93;;;5.72;;
13590;SDS011;6866;50.778;7.206;2023-07-22T05:10:02;14.82;;;5.85;;
13590;SDS011;6866;50.778;7.206;2023-07-22T05:12:28;8.50;;;5.75;;
13590;SDS011;6866;50.778;7.206;2023-07-22T05:14:53;9.75;;;5.80;;
13590;SDS011;6866;50.778;7.206;2023-07-22T05:17:19;7.88;;;5.40;;
13590;SDS011;6866;50.778;7.206;2023-07-22T05:19:44;8.57;;;5.63;;
13590;SDS011;6866;50.778;7.206;2023-07-22T05:22:10;8.13;;;5.38;;
13590;SDS011;6866;50.778;7.206;2023-07-22T05:24:35;10.27;;;5.50;;
13590;SDS011;6866;50.778;7.206;2023-07-22T05:27:01;8.70;;;5.18;;
13590;SDS011;6866;50.778;7.206;2023-07-22T05:29:26;9.85;;;5.18;;
13590;SDS011;6866;50.778;7.206;2023-07-22T05:31:52;8.88;;;5.30;;
13590;SDS011;6866;50.778;7.206;2023-07-22T05:34:17;9.52;;;4.93;;
13590;SDS011;6866;50.778;7.206;2023-07-22T05:36:43;10.05;;;5.00;;
13590;SDS011;6866;50.778;7.206;2023-07-22T05:39:08;8.90;;;4.75;;
13590;SDS011;6866;50.778;7.206;2023-07-22T05:41:34;6.47;;;4.57;;
13590;SDS011;6866;50.778;7.206;2023-07-22T05:44:00;7.05;;;4.53;;
13590;SDS011;6866;50.778;7.206;2023-07-22T05:46:25;9.50;;;4.63;;
13590;SDS011;6866;50.778;7.206;2023-07-22T05:48:51;6.05;;;4.40;;
13590;SDS011;6866;50.778;7.206;2023-07-22T05:51:17;5.60;;;4.00;;
13590;SDS011;6866;50.778;7.206;2023-07-22T05:53:43;7.00;;;4.40;;
13590;SDS011;6866;50.778;7.206;2023-07-22T05:56:08;7.82;;;4.10;;
13590;SDS011;6866;50.778;7.206;2023-07-22T05:58:34;6.63;;;4.30;;
13590;SDS011;6866;50.778;7.206;2023-07-22T06:01:00;6.22;;;4.03;;
13590;SDS011;6866;50.778;7.206;2023-07-22T06:03:25;10.85;;;4.90;;
13590;SDS011;6866;50.778;7.206;2023-07-22T06:05:51;32.92;;;9.85;;
13590;SDS011;6866;50.778;7.206;2023-07-22T06:08:16;6.85;;;4.82;;
13590;SDS011;6866;50.778;7.206;2023-07-22T06:10:42;8.70;;;4.15;;
13590;SDS011;6866;50.778;7.206;2023-07-22T06:13:08;7.22;;;4.00;;
13590;SDS011;6866;50.778;7.206;2023-07-22T06:15:33;5.25;;;4.18;;
13590;SDS011;6866;50.778;7.206;2023-07-22T06:18:00;5.80;;;4.10;;
13590;SDS011;6866;50.778;7.206;2023-07-22T06:20:26;10.05;;;3.85;;
13590;SDS011;6866;50.778;7.206;2023-07-22T06:22:52;7.28;;;4.40;;
13590;SDS011;6866;50.778;7.206;2023-07-22T06:25:17;8.55;;;4.30;;
13590;SDS011;6866;50.778;7.206;2023-07-22T06:27:43;5.97;;;4.05;;
13590;SDS011;6866;50.778;7.206;2023-07-22T06:30:09;6.68;;;3.90;;
13590;SDS011;6866;50.778;7.206;2023-07-22T06:32:38;6.82;;;3.80;;
13590;SDS011;6866;50.778;7.206;2023-07-22T06:35:04;7.38;;;3.90;;
13590;SDS011;6866;50.778;7.206;2023-07-22T06:37:30;6.13;;;4.00;;
13590;SDS011;6866;50.778;7.206;2023-07-22T06:39:56;5.85;;;4.15;;
13590;SDS011;6866;50.778;7.206;2023-07-22T06:42:21;6.22;;;4.10;;
13590;SDS011;6866;50.778;7.206;2023-07-22T06:44:47;6.28;;;3.95;;
13590;SDS011;6866;50.778;7.206;2023-07-22T06:47:12;9.07;;;4.50;;
13590;SDS011;6866;50.778;7.206;2023-07-22T06:49:38;7.95;;;4.10;;
13590;SDS011;6866;50.778;7.206;2023-07-22T06:52:06;8.13;;;4.53;;
13590;SDS011;6866;50.778;7.206;2023-07-22T06:54:32;6.78;;;3.83;;
13590;SDS011;6866;50.778;7.206;2023-07-22T06:56:57;7.22;;;4.15;;
13590;SDS011;6866;50.778;7.206;2023-07-22T06:59:23;8.00;;;4.00;;
13590;SDS011;6866;50.778;7.206;2023-07-22T07:01:48;6.65;;;4.25;;
13590;SDS011;6866;50.778;7.206;2023-07-22T07:04:14;7.07;;;4.05;;
13590;SDS011;6866;50.778;7.206;2023-07-22T07:06:39;6.07;;;4.00;;
13590;SDS011;6866;50.778;7.206;2023-07-22T07:09:05;8.57;;;4.20;;
13590;SDS011;6866;50.778;7.206;2023-07-22T07:11:31;6.45;;;3.92;;
13590;SDS011;6866;50.778;7.206;2023-07-22T07:13:56;5.63;;;3.83;;
13590;SDS011;6866;50.778;7.206;2023-07-22T07:16:27;7.50;;;4.07;;
13590;SDS011;6866;50.778;7.206;2023-07-22T07:26:12;9.93;;;4.10;;
13590;SDS011;6866;50.778;7.206;2023-07-22T07:28:37;8.07;;;4.00;;
13590;SDS011;6866;50.778;7.206;2023-07-22T07:31:03;7.45;;;4.15;;
13590;SDS011;6866;50.778;7.206;2023-07-22T07:33:28;7.43;;;4.13;;
13590;SDS011;6866;50.778;7.206;2023-07-22T07:35:54;6.32;;;3.80;;
13590;SDS011;6866;50.778;7.206;2023-07-22T08:46:16;6.60;;;4.60;;
13590;SDS011;6866;50.778;7.206;2023-07-22T08:51:15;6.93;;;4.70;;
13590;SDS011;6866;50.778;7.206;2023-07-22T08:56:08;7.13;;;4.47;;
13590;SDS011;6866;50.778;7.206;2023-07-22T08:58:35;6.88;;;4.78;;
13590;SDS011;6866;50.778;7.206;2023-07-22T09:01:01;6.68;;;4.63;;
13590;SDS011;6866;50.778;7.206;2023-07-22T09:03:27;6.63;;;4.60;;
13590;SDS011;6866;50.778;7.206;2023-07-22T09:05:54;6.07;;;4.53;;
13590;SDS011;6866;50.778;7.206;2023-07-22T09:08:20;6.88;;;4.78;;
13590;SDS011;6866;50.778;7.206;2023-07-22T09:10:46;7.70;;;4.63;;
13590;SDS011;6866;50.778;7.206;2023-07-22T09:13:13;7.70;;;4.40;;
13590;SDS011;6866;50.778;7.206;2023-07-22T09:15:39;7.90;;;4.75;;
13590;SDS011;6866;50.778;7.206;2023-07-22T09:18:05;7.40;;;4.47;;
13590;SDS011;6866;50.778;7.206;2023-07-22T09:20:31;6.53;;;4.65;;
13590;SDS011;6866;50.778;7.206;2023-07-22T09:22:58;6.18;;;4.13;;
13590;SDS011;6866;50.778;7.206;2023-07-22T09:25:25;7.82;;;4.43;;
13590;SDS011;6866;50.778;7.206;2023-07-22T09:27:52;8.57;;;4.57;;
13590;SDS011;6866;50.778;7.206;2023-07-22T09:30:26;6.00;;;4.20;;
13590;SDS011;6866;50.778;7.206;2023-07-22T09:32:52;5.97;;;4.10;;
13590;SDS011;6866;50.778;7.206;2023-07-22T09:35:19;6.80;;;4.32;;
13590;SDS011;6866;50.778;7.206;2023-07-22T09:37:45;8.75;;;4.35;;
13590;SDS011;6866;50.778;7.206;2023-07-22T09:40:15;6.85;;;4.43;;
13590;SDS011;6866;50.778;7.206;2023-07-22T09:42:48;7.55;;;4.25;;
13590;SDS011;6866;50.778;7.206;2023-07-22T09:45:18;6.15;;;3.78;;
13590;SDS011;6866;50.778;7.206;2023-07-22T09:47:46;5.25;;;3.80;;
13590;SDS011;6866;50.778;7.206;2023-07-22T09:50:15;5.68;;;4.18;;
13590;SDS011;6866;50.778;7.206;2023-07-22T09:52:53;7.03;;;4.20;;
13590;SDS011;6866;50.778;7.206;2023-07-22T09:55:20;5.00;;;4.10;;
13590;SDS011;6866;50.778;7.206;2023-07-22T09:57:47;6.45;;;4.10;;
13590;SDS011;6866;50.778;7.206;2023-07-22T10:00:23;7.07;;;3.97;;
13590;SDS011;6866;50.778;7.206;2023-07-22T10:02:51;6.32;;;3.40;;
13590;SDS011;6866;50.778;7.206;2023-07-22T10:05:18;7.00;;;3.60;;
13590;SDS011;6866;50.778;7.206;2023-07-22T10:07:45;5.90;;;4.00;;
13590;SDS011;6866;50.778;7.206;2023-07-22T10:10:12;6.80;;;4.00;;
13590;SDS011;6866;50.778;7.206;2023-07-22T10:12:40;5.60;;;3.70;;
13590;SDS011;6866;50.778;7.206;2023-07-22T10:15:10;7.30;;;3.60;;
13590;SDS011;6866;50.778;7.206;2023-07-22T10:17:37;7.00;;;3.83;;
13590;SDS011;6866;50.778;7.206;2023-07-22T10:20:04;5.85;;;4.00;;
13590;SDS011;6866;50.778;7.206;2023-07-22T10:22:36;4.85;;;3.47;;
13590;SDS011;6866;50.778;7.206;2023-07-22T10:25:03;5.45;;;3.47;;
13590;SDS011;6866;50.778;7.206;2023-07-22T10:27:30;6.50;;;3.78;;
13590;SDS011;6866;50.778;7.206;2023-07-22T10:32:24;5.47;;;3.50;;
13590;SDS011;6866;50.778;7.206;2023-07-22T10:34:49;9.68;;;3.67;;
13590;SDS011;6866;50.778;7.206;2023-07-22T10:37:17;6.35;;;3.63;;
13590;SDS011;6866;50.778;7.206;2023-07-22T10:39:44;6.03;;;3.78;;
13590;SDS011;6866;50.778;7.206;2023-07-22T10:42:09;6.43;;;3.60;;
13590;SDS011;6866;50.778;7.206;2023-07-22T10:44:49;5.43;;;3.70;;
13590;SDS011;6866;50.778;7.206;2023-07-22T10:47:29;5.07;;;3.80;;
13590;SDS011;6866;50.778;7.206;2023-07-22T10:49:58;5.35;;;3.28;;
13590;SDS011;6866;50.778;7.206;2023-07-22T10:52:42;5.38;;;3.20;;
13590;SDS011;6866;50.778;7.206;2023-07-22T10:55:15;6.90;;;3.60;;
13590;SDS011;6866;50.778;7.206;2023-07-22T10:57:47;5.70;;;3.28;;
13590;SDS011;6866;50.778;7.206;2023-07-22T11:00:18;5.45;;;3.20;;
13590;SDS011;6866;50.778;7.206;2023-07-22T11:02:46;11.32;;;3.40;;
13590;SDS011;6866;50.778;7.206;2023-07-22T11:05:46;4.88;;;3.30;;
13590;SDS011;6866;50.778;7.206;2023-07-22T11:08:13;5.75;;;3.00;;
13590;SDS011;6866;50.778;7.206;2023-07-22T11:10:47;5.82;;;3.00;;
13590;SDS011;6866;50.778;7.206;2023-07-22T11:13:18;4.40;;;2.75;;
13590;SDS011;6866;50.778;7.206;2023-07-22T11:20:38;3.47;;;2.13;;
13590;SDS011;6866;50.778;7.206;2023-07-22T11:23:03;3.70;;;1.77;;
13590;SDS011;6866;50.778;7.206;2023-07-22T11:25:29;3.72;;;1.83;;
13590;SDS011;6866;50.778;7.206;2023-07-22T11:27:58;3.15;;;1.70;;
13590;SDS011;6866;50.778;7.206;2023-07-22T11:30:24;3.60;;;1.92;;
13590;SDS011;6866;50.778;7.206;2023-07-22T11:32:49;3.55;;;2.00;;
13590;SDS011;6866;50.778;7.206;2023-07-22T11:35:15;5.38;;;3.40;;
13590;SDS011;6866;50.778;7.206;2023-07-22T11:40:10;3.63;;;1.95;;
13590;SDS011;6866;50.778;7.206;2023-07-22T11:42:36;5.07;;;1.80;;
13590;SDS011;6866;50.778;7.206;2023-07-22T11:45:03;3.00;;;1.77;;
13590;SDS011;6866;50.778;7.206;2023-07-22T11:47:30;2.88;;;1.70;;
13590;SDS011;6866;50.778;7.206;2023-07-22T11:49:56;2.65;;;1.70;;
13590;SDS011;6866;50.778;7.206;2023-07-22T11:52:21;3.13;;;1.70;;
13590;SDS011;6866;50.778;7.206;2023-07-22T11:54:47;3.80;;;1.90;;
13590;SDS011;6866;50.778;7.206;2023-07-22T11:57:13;4.25;;;1.80;;
13590;SDS011;6866;50.778;7.206;2023-07-22T11:59:40;2.80;;;1.60;;
13590;SDS011;6866;50.778;7.206;2023-07-22T12:02:13;2.72;;;1.73;;
13590;SDS011;6866;50.778;7.206;2023-07-22T12:04:40;4.72;;;1.80;;
13590;SDS011;6866;50.778;7.206;2023-07-22T12:07:05;2.63;;;1.77;;
13590;SDS011;6866;50.778;7.206;2023-07-22T12:09:31;4.65;;;1.92;;
13590;SDS011;6866;50.778;7.206;2023-07-22T12:11:59;3.20;;;1.80;;
13590;SDS011;6866;50.778;7.206;2023-07-22T12:14:34;5.00;;;2.03;;
13590;SDS011;6866;50.778;7.206;2023-07-22T12:17:00;2.70;;;1.70;;
13590;SDS011;6866;50.778;7.206;2023-07-22T12:19:29;5.70;;;1.70;;
13590;SDS011;6866;50.778;7.206;2023-07-22T12:21:55;3.00;;;1.80;;
13590;SDS011;6866;50.778;7.206;2023-07-22T12:24:21;3.60;;;1.80;;
13590;SDS011;6866;50.778;7.206;2023-07-22T12:26:46;2.95;;;1.90;;
13590;SDS011;6866;50.778;7.206;2023-07-22T12:29:12;4.65;;;2.00;;
13590;SDS011;6866;50.778;7.206;2023-07-22T12:31:37;3.25;;;1.83;;
13590;SDS011;6866;50.778;7.206;2023-07-22T12:34:03;4.30;;;2.20;;
13590;SDS011;6866;50.778;7.206;2023-07-22T12:36:28;4.78;;;2.20;;
13590;SDS011;6866;50.778;7.206;2023-07-22T12:38:54;3.95;;;2.10;;
13590;SDS011;6866;50.778;7.206;2023-07-22T12:41:19;3.67;;;2.15;;
13590;SDS011;6866;50.778;7.206;2023-07-22T12:43:45;3.42;;;2.00;;
13590;SDS011;6866;50.778;7.206;2023-07-22T12:46:10;3.95;;;2.20;;
13590;SDS011;6866;50.778;7.206;2023-07-22T12:48:36;4.85;;;2.50;;
13590;SDS011;6866;50.778;7.206;2023-07-22T12:51:01;3.38;;;2.20;;
13590;SDS011;6866;50.778;7.206;2023-07-22T12:53:27;3.15;;;2.20;;
13590;SDS011;6866;50.778;7.206;2023-07-22T12:55:53;3.72;;;2.10;;
13590;SDS011;6866;50.778;7.206;2023-07-22T12:58:19;4.38;;;2.35;;
13590;SDS011;6866;50.778;7.206;2023-07-22T13:00:44;5.15;;;2.40;;
13590;SDS011;6866;50.778;7.206;2023-07-22T13:03:10;3.78;;;2.28;;
13590;SDS011;6866;50.778;7.206;2023-07-22T13:05:35;3.40;;;2.00;;
13590;SDS011;6866;50.778;7.206;2023-07-22T13:08:01;3.70;;;2.35;;
13590;SDS011;6866;50.778;7.206;2023-07-22T13:10:27;3.88;;;2.55;;
13590;SDS011;6866;50.778;7.206;2023-07-22T13:12:57;5.40;;;2.58;;
13590;SDS011;6866;50.778;7.206;2023-07-22T13:15:23;4.07;;;2.50;;
13590;SDS011;6866;50.778;7.206;2023-07-22T13:17:48;5.30;;;2.42;;
13590;SDS011;6866;50.778;7.206;2023-07-22T13:20:14;3.90;;;2.15;;
13590;SDS011;6866;50.778;7.206;2023-07-22T13:22:39;3.83;;;2.38;;
13590;SDS011;6866;50.778;7.206;2023-07-22T13:25:05;3.70;;;2.30;;
13590;SDS011;6866;50.778;7.206;2023-07-22T13:27:31;4.50;;;2.22;;
13590;SDS011;6866;50.778;7.206;2023-07-22T13:29:57;3.45;;;2.25;;
13590;SDS011;6866;50.778;7.206;2023-07-22T13:32:23;3.80;;;2.17;;
13590;SDS011;6866;50.778;7.206;2023-07-22T13:34:48;4.78;;;2.22;;
13590;SDS011;6866;50.778;7.206;2023-07-22T13:37:14;3.55;;;2.20;;
13590;SDS011;6866;50.778;7.206;2023-07-22T13:39:40;3.75;;;2.53;;
13590;SDS011;6866;50.778;7.206;2023-07-22T13:42:05;3.50;;;2.15;;
13590;SDS011;6866;50.778;7.206;2023-07-22T13:44:31;7.65;;;2.75;;
13590;SDS011;6866;50.778;7.206;2023-07-22T13:46:56;4.85;;;2.40;;
13590;SDS011;6866;50.778;7.206;2023-07-22T13:49:22;5.35;;;2.40;;
13590;SDS011;6866;50.778;7.206;2023-07-22T13:51:47;3.28;;;1.98;;
13590;SDS011;6866;50.778;7.206;2023-07-22T13:54:13;4.15;;;2.45;;
13590;SDS011;6866;50.778;7.206;2023-07-22T13:56:38;4.18;;;2.60;;
13590;SDS011;6866;50.778;7.206;2023-07-22T13:59:04;3.95;;;2.33;;
13590;SDS011;6866;50.778;7.206;2023-07-22T14:01:30;4.15;;;2.47;;
13590;SDS011;6866;50.778;7.206;2023-07-22T14:03:56;3.83;;;2.63;;
13590;SDS011;6866;50.778;7.206;2023-07-22T14:06:22;3.83;;;2.42;;
13590;SDS011;6866;50.778;7.206;2023-07-22T14:08:48;4.60;;;2.60;;
13590;SDS011;6866;50.778;7.206;2023-07-22T14:11:13;3.90;;;2.53;;
13590;SDS011;6866;50.778;7.206;2023-07-22T14:13:39;3.60;;;2.33;;
13590;SDS011;6866;50.778;7.206;2023-07-22T14:16:04;4.30;;;2.50;;
13590;SDS011;6866;50.778;7.206;2023-07-22T14:18:30;4.63;;;2.50;;
13590;SDS011;6866;50.778;7.206;2023-07-22T14:20:55;5.45;;;2.85;;
13590;SDS011;6866;50.778;7.206;2023-07-22T14:23:21;5.35;;;2.80;;
13590;SDS011;6866;50.778;7.206;2023-07-22T14:25:46;5.22;;;2.88;;
13590;SDS011;6866;50.778;7.206;2023-07-22T14:28:12;5.57;;;2.92;;
13590;SDS011;6866;50.778;7.206;2023-07-22T14:30:37;4.30;;;2.63;;
13590;SDS011;6866;50.778;7.206;2023-07-22T14:33:03;4.80;;;2.90;;
13590;SDS011;6866;50.778;7.206;2023-07-22T14:35:28;4.93;;;3.00;;
13590;SDS011;6866;50.778;7.206;2023-07-22T14:37:54;4.32;;;2.50;;
13590;SDS011;6866;50.778;7.206;2023-07-22T14:40:21;5.25;;;2.88;;
13590;SDS011;6866;50.778;7.206;2023-07-22T14:42:46;6.05;;;3.00;;
13590;SDS011;6866;50.778;7.206;2023-07-22T14:45:12;4.32;;;2.78;;
13590;SDS011;6866;50.778;7.206;2023-07-22T14:47:37;3.78;;;2.60;;
13590;SDS011;6866;50.778;7.206;2023-07-22T14:50:03;4.10;;;2.80;;
13590;SDS011;6866;50.778;7.206;2023-07-22T14:52:29;4.95;;;2.70;;
13590;SDS011;6866;50.778;7.206;2023-07-22T14:54:54;4.28;;;2.80;;
13590;SDS011;6866;50.778;7.206;2023-07-22T14:57:19;5.40;;;2.90;;
13590;SDS011;6866;50.778;7.206;2023-07-22T14:59:45;6.28;;;3.03;;
13590;SDS011;6866;50.778;7.206;2023-07-22T15:02:11;4.70;;;2.97;;
13590;SDS011;6866;50.778;7.206;2023-07-22T15:04:37;4.28;;;2.92;;
13590;SDS011;6866;50.778;7.206;2023-07-22T15:07:03;4.35;;;2.72;;
13590;SDS011;6866;50.778;7.206;2023-07-22T15:09:28;5.45;;;2.95;;
13590;SDS011;6866;50.778;7.206;2023-07-22T15:11:54;5.97;;;3.28;;
13590;SDS011;6866;50.778;7.206;2023-07-22T15:14:19;4.97;;;2.97;;
13590;SDS011;6866;50.778;7.206;2023-07-22T15:16:45;5.43;;;3.33;;
13590;SDS011;6866;50.778;7.206;2023-07-22T15:19:10;4.75;;;3.20;;
13590;SDS011;6866;50.778;7.206;2023-07-22T15:21:36;7.03;;;3.22;;
13590;SDS011;6866;50.778;7.206;2023-07-22T15:24:02;4.97;;;3.03;;
13590;SDS011;6866;50.778;7.206;2023-07-22T15:26:28;5.07;;;3.00;;
13590;SDS011;6866;50.778;7.206;2023-07-22T15:28:54;5.72;;;3.70;;
13590;SDS011;6866;50.778;7.206;2023-07-22T15:31:20;6.63;;;3.97;;
13590;SDS011;6866;50.778;7.206;2023-07-22T15:33:48;5.82;;;3.70;;
13590;SDS011;6866;50.778;7.206;2023-07-22T15:36:14;6.20;;;3.42;;
13590;SDS011;6866;50.778;7.206;2023-07-22T15:38:40;5.60;;;3.72;;
13590;SDS011;6866;50.778;7.206;2023-07-22T15:41:05;5.57;;;3.78;;
13590;SDS011;6866;50.778;7.206;2023-07-22T15:43:31;5.68;;;3.85;;
13590;SDS011;6866;50.778;7.206;2023-07-22T15:45:57;8.90;;;3.92;;
13590;SDS011;6866;50.778;7.206;2023-07-22T15:48:23;7.18;;;3.83;;
13590;SDS011;6866;50.778;7.206;2023-07-22T15:50:49;7.85;;;4.70;;
13590;SDS011;6866;50.778;7.206;2023-07-22T15:53:15;6.45;;;4.30;;
13590;SDS011;6866;50.778;7.206;2023-07-22T15:55:40;12.20;;;4.47;;
13590;SDS011;6866;50.778;7.206;2023-07-22T15:58:07;9.13;;;4.90;;
13590;SDS011;6866;50.778;7.206;2023-07-22T16:00:32;8.25;;;4.38;;
13590;SDS011;6866;50.778;7.206;2023-07-22T16:02:58;7.22;;;4.90;;
13590;SDS011;6866;50.778;7.206;2023-07-22T16:05:24;9.00;;;4.68;;
13590;SDS011;6866;50.778;7.206;2023-07-22T16:07:50;7.15;;;4.70;;
13590;SDS011;6866;50.778;7.206;2023-07-22T16:10:15;10.25;;;4.13;;
13590;SDS011;6866;50.778;7.206;2023-07-22T16:12:41;8.43;;;4.30;;
13590;SDS011;6866;50.778;7.206;2023-07-22T16:15:07;6.28;;;4.13;;
13590;SDS011;6866;50.778;7.206;2023-07-22T16:17:33;9.15;;;3.97;;
13590;SDS011;6866;50.778;7.206;2023-07-22T16:19:58;6.72;;;3.83;;
13590;SDS011;6866;50.778;7.206;2023-07-22T16:22:24;8.55;;;4.30;;
13590;SDS011;6866;50.778;7.206;2023-07-22T16:24:50;6.18;;;4.25;;
13590;SDS011;6866;50.778;7.206;2023-07-22T16:27:15;6.57;;;4.10;;